sensor_id;sensor_type;location;lat;lon;timestamp;pressure;altitude;pressure_sealevel;temperature;humidity
73242;BME280;65659;49.234;-2.094;2022-12-31T00:00:49;98975.32;;;26.25;30.20
73242;BME280;65659;49.234;-2.094;2022-12-31T00:03:14;98973.41;;;26.30;30.16
73242;BME280;65659;49.234;-2.094;2022-12-31T00:05:40;98981.89;;;26.29;30.16
73242;BME280;65659;49.234;-2.094;2022-12-31T00:08:06;98982.90;;;26.29;30.17
73242;BME280;65659;49.234;-2.094;2022-12-31T00:10:31;98984.59;;;26.34;30.13
73242;BME280;65659;49.234;-2.094;2022-12-31T00:12:57;98982.01;;;26.31;30.13
73242;BME280;65659;49.234;-2.094;2022-12-31T00:15:23;98975.26;;;26.28;30.17
73242;BME280;65659;49.234;-2.094;2022-12-31T00:17:48;98984.09;;;26.30;30.17
73242;BME280;65659;49.234;-2.094;2022-12-31T00:20:14;98992.97;;;26.31;30.16
73242;BME280;65659;49.234;-2.094;2022-12-31T00:22:40;98984.91;;;26.29;30.19
73242;BME280;65659;49.234;-2.094;2022-12-31T00:25:06;98991.91;;;26.29;30.17
73242;BME280;65659;49.234;-2.094;2022-12-31T00:27:31;98995.65;;;26.30;30.15
73242;BME280;65659;49.234;-2.094;2022-12-31T00:29:57;98995.76;;;26.33;30.12
73242;BME280;65659;49.234;-2.094;2022-12-31T00:32:23;98998.71;;;26.33;30.13
73242;BME280;65659;49.234;-2.094;2022-12-31T00:34:48;98999.82;;;26.32;30.14
73242;BME280;65659;49.234;-2.094;2022-12-31T00:37:14;99002.29;;;26.31;30.16
73242;BME280;65659;49.234;-2.094;2022-12-31T00:39:39;98997.90;;;26.30;30.17
73242;BME280;65659;49.234;-2.094;2022-12-31T00:42:06;99005.02;;;26.28;30.21
73242;BME280;65659;49.234;-2.094;2022-12-31T00:44:31;99012.34;;;26.33;30.14
73242;BME280;65659;49.234;-2.094;2022-12-31T00:46:56;99006.41;;;26.18;30.06
73242;BME280;65659;49.234;-2.094;2022-12-31T00:49:22;99015.77;;;26.36;30.13
73242;BME280;65659;49.234;-2.094;2022-12-31T00:51:48;99017.55;;;26.36;30.12
73242;BME280;65659;49.234;-2.094;2022-12-31T00:54:13;99017.87;;;26.36;30.11
73242;BME280;65659;49.234;-2.094;2022-12-31T00:56:39;99018.46;;;26.37;30.08
73242;BME280;65659;49.234;-2.094;2022-12-31T00:59:06;99019.64;;;26.36;30.12
73242;BME280;65659;49.234;-2.094;2022-12-31T01:01:32;99028.11;;;26.37;30.10
73242;BME280;65659;49.234;-2.094;2022-12-31T01:03:59;99031.35;;;26.34;30.14
73242;BME280;65659;49.234;-2.094;2022-12-31T01:06:22;99035.99;;;26.59;30.14
73242;BME280;65659;49.234;-2.094;2022-12-31T01:08:48;99048.84;;;26.36;30.13
73242;BME280;65659;49.234;-2.094;2022-12-31T01:11:13;99048.31;;;26.34;30.15
73242;BME280;65659;49.234;-2.094;2022-12-31T01:13:39;99043.87;;;26.35;30.17
73242;BME280;65659;49.234;-2.094;2022-12-31T01:16:07;99052.87;;;26.31;30.25
73242;BME280;65659;49.234;-2.094;2022-12-31T01:18:30;99051.80;;;26.32;30.19
73242;BME280;65659;49.234;-2.094;2022-12-31T01:20:56;99055.57;;;26.10;30.17
73242;BME280;65659;49.234;-2.094;2022-12-31T01:23:21;99052.13;;;26.40;30.09
73242;BME280;65659;49.234;-2.094;2022-12-31T01:25:47;99055.78;;;26.16;30.13
73242;BME280;65659;49.234;-2.094;2022-12-31T01:28:13;99048.49;;;26.35;30.16
73242;BME280;65659;49.234;-2.094;2022-12-31T01:30:38;99058.66;;;26.34;30.18
73242;BME280;65659;49.234;-2.094;2022-12-31T01:33:04;99069.15;;;26.31;30.24
73242;BME280;65659;49.234;-2.094;2022-12-31T01:35:30;99075.26;;;26.30;30.24
73242;BME280;65659;49.234;-2.094;2022-12-31T01:37:55;99072.45;;;26.30;30.25
73242;BME280;65659;49.234;-2.094;2022-12-31T01:40:26;99079.37;;;26.30;30.26
73242;BME280;65659;49.234;-2.094;2022-12-31T01:42:53;99080.47;;;26.32;30.24
73242;BME280;65659;49.234;-2.094;2022-12-31T01:45:13;99074.78;;;26.34;30.22
73242;BME280;65659;49.234;-2.094;2022-12-31T01:47:41;99077.83;;;26.09;30.28
73242;BME280;65659;49.234;-2.094;2022-12-31T01:50:10;99078.14;;;26.35;30.23
73242;BME280;65659;49.234;-2.094;2022-12-31T01:52:31;99091.82;;;26.33;30.30
73242;BME280;65659;49.234;-2.094;2022-12-31T01:54:57;99091.28;;;26.31;30.30
73242;BME280;65659;49.234;-2.094;2022-12-31T01:57:21;99093.56;;;26.33;30.26
73242;BME280;65659;49.234;-2.094;2022-12-31T01:59:46;99095.53;;;26.38;30.25
73242;BME280;65659;49.234;-2.094;2022-12-31T02:02:13;99111.81;;;26.38;30.21
73242;BME280;65659;49.234;-2.094;2022-12-31T02:04:38;99094.65;;;26.36;30.22
73242;BME280;65659;49.234;-2.094;2022-12-31T02:07:05;99103.10;;;26.33;30.31
73242;BME280;65659;49.234;-2.094;2022-12-31T02:09:30;99106.99;;;26.31;30.33
73242;BME280;65659;49.234;-2.094;2022-12-31T02:11:55;99105.72;;;26.30;30.31
73242;BME280;65659;49.234;-2.094;2022-12-31T02:14:23;99109.74;;;26.31;30.32
73242;BME280;65659;49.234;-2.094;2022-12-31T02:16:52;99108.94;;;26.32;30.30
73242;BME280;65659;49.234;-2.094;2022-12-31T02:21:47;99114.84;;;26.33;30.30
73242;BME280;65659;49.234;-2.094;2022-12-31T02:24:25;99117.05;;;26.33;30.33
73242;BME280;65659;49.234;-2.094;2022-12-31T02:26:49;99117.77;;;26.11;30.29
73242;BME280;65659;49.234;-2.094;2022-12-31T02:29:11;99119.54;;;26.60;30.26
73242;BME280;65659;49.234;-2.094;2022-12-31T02:31:24;99130.54;;;26.37;30.30
73242;BME280;65659;49.234;-2.094;2022-12-31T02:33:51;99130.75;;;26.35;30.33
73242;BME280;65659;49.234;-2.094;2022-12-31T02:36:16;99128.36;;;26.35;30.34
73242;BME280;65659;49.234;-2.094;2022-12-31T02:38:41;99117.46;;;26.40;30.25
73242;BME280;65659;49.234;-2.094;2022-12-31T02:41:03;99124.82;;;26.60;30.29
73242;BME280;65659;49.234;-2.094;2022-12-31T02:43:28;99109.56;;;26.36;30.28
73242;BME280;65659;49.234;-2.094;2022-12-31T02:46:01;99112.00;;;26.32;30.34
73242;BME280;65659;49.234;-2.094;2022-12-31T02:48:33;99119.98;;;26.09;30.34
73242;BME280;65659;49.234;-2.094;2022-12-31T02:50:51;99120.25;;;26.33;30.34
73242;BME280;65659;49.234;-2.094;2022-12-31T02:53:20;99109.20;;;26.35;30.34
73242;BME280;65659;49.234;-2.094;2022-12-31T02:55:43;99113.88;;;26.36;30.34
73242;BME280;65659;49.234;-2.094;2022-12-31T02:58:10;99104.90;;;26.35;30.34
73242;BME280;65659;49.234;-2.094;2022-12-31T03:00:30;99112.39;;;26.58;30.37
73242;BME280;65659;49.234;-2.094;2022-12-31T03:02:55;99115.59;;;26.10;30.36
73242;BME280;65659;49.234;-2.094;2022-12-31T03:05:22;99109.69;;;26.33;30.38
73242;BME280;65659;49.234;-2.094;2022-12-31T03:07:45;99118.25;;;26.71;30.20
73242;BME280;65659;49.234;-2.094;2022-12-31T03:10:11;99123.05;;;26.41;30.32
73242;BME280;65659;49.234;-2.094;2022-12-31T03:12:37;99119.77;;;26.40;30.28
73242;BME280;65659;49.234;-2.094;2022-12-31T03:15:03;99122.09;;;26.44;30.26
73242;BME280;65659;49.234;-2.094;2022-12-31T03:17:28;99123.21;;;26.39;30.35
73242;BME280;65659;49.234;-2.094;2022-12-31T03:19:54;99120.16;;;26.12;30.35
73242;BME280;65659;49.234;-2.094;2022-12-31T03:22:19;99131.28;;;26.34;30.41
73242;BME280;65659;49.234;-2.094;2022-12-31T03:24:45;99135.32;;;26.57;30.39
73242;BME280;65659;49.234;-2.094;2022-12-31T03:27:11;99150.21;;;26.31;30.45
73242;BME280;65659;49.234;-2.094;2022-12-31T03:29:37;99163.83;;;26.32;30.47
73242;BME280;65659;49.234;-2.094;2022-12-31T03:32:02;99173.86;;;26.30;30.46
73242;BME280;65659;49.234;-2.094;2022-12-31T03:34:28;99170.92;;;26.32;30.42
73242;BME280;65659;49.234;-2.094;2022-12-31T03:36:53;99180.89;;;26.30;30.48
73242;BME280;65659;49.234;-2.094;2022-12-31T03:39:19;99185.28;;;26.30;30.47
73242;BME280;65659;49.234;-2.094;2022-12-31T03:41:45;99211.41;;;26.31;30.48
73242;BME280;65659;49.234;-2.094;2022-12-31T03:44:10;99215.67;;;26.53;30.49
73242;BME280;65659;49.234;-2.094;2022-12-31T03:46:36;99234.98;;;26.31;30.50
73242;BME280;65659;49.234;-2.094;2022-12-31T03:49:02;99224.37;;;26.35;30.44
73242;BME280;65659;49.234;-2.094;2022-12-31T03:51:27;99233.54;;;26.42;30.37
73242;BME280;65659;49.234;-2.094;2022-12-31T03:53:53;99233.34;;;26.37;30.42
73242;BME280;65659;49.234;-2.094;2022-12-31T03:56:19;99241.75;;;26.33;30.47
73242;BME280;65659;49.234;-2.094;2022-12-31T03:58:44;99209.62;;;26.31;30.49
73242;BME280;65659;49.234;-2.094;2022-12-31T04:01:10;99161.06;;;26.32;30.46
73242;BME280;65659;49.234;-2.094;2022-12-31T04:03:36;99170.23;;;26.32;30.46
73242;BME280;65659;49.234;-2.094;2022-12-31T04:06:02;99190.37;;;26.32;30.48
73242;BME280;65659;49.234;-2.094;2022-12-31T04:08:27;99212.59;;;26.29;30.51
73242;BME280;65659;49.234;-2.094;2022-12-31T04:10:53;99215.53;;;26.27;30.57
73242;BME280;65659;49.234;-2.094;2022-12-31T04:13:19;99212.51;;;26.28;30.55
73242;BME280;65659;49.234;-2.094;2022-12-31T04:15:44;99208.94;;;26.28;30.56
73242;BME280;65659;49.234;-2.094;2022-12-31T04:18:10;99222.84;;;26.07;30.52
73242;BME280;65659;49.234;-2.094;2022-12-31T04:20:36;99216.73;;;26.31;30.53
73242;BME280;65659;49.234;-2.094;2022-12-31T04:23:01;99222.46;;;26.56;30.53
73242;BME280;65659;49.234;-2.094;2022-12-31T04:25:27;99228.39;;;26.30;30.57
73242;BME280;65659;49.234;-2.094;2022-12-31T04:27:53;99228.51;;;26.12;30.49
73242;BME280;65659;49.234;-2.094;2022-12-31T04:30:18;99228.33;;;26.36;30.49
73242;BME280;65659;49.234;-2.094;2022-12-31T04:32:44;99219.35;;;26.33;30.54
73242;BME280;65659;49.234;-2.094;2022-12-31T04:35:10;99216.76;;;26.31;30.56
73242;BME280;65659;49.234;-2.094;2022-12-31T04:37:35;99211.76;;;26.32;30.54
73242;BME280;65659;49.234;-2.094;2022-12-31T04:40:01;99215.25;;;26.29;30.60
73242;BME280;65659;49.234;-2.094;2022-12-31T04:42:27;99215.46;;;26.29;30.63
73242;BME280;65659;49.234;-2.094;2022-12-31T04:44:52;99218.31;;;26.28;30.61
73242;BME280;65659;49.234;-2.094;2022-12-31T04:47:18;99227.96;;;26.27;30.62
73242;BME280;65659;49.234;-2.094;2022-12-31T04:49:44;99227.36;;;26.28;30.62
73242;BME280;65659;49.234;-2.094;2022-12-31T04:52:09;99227.63;;;26.05;30.64
73242;BME280;65659;49.234;-2.094;2022-12-31T04:54:35;99231.15;;;26.31;30.59
73242;BME280;65659;49.234;-2.094;2022-12-31T04:57:01;99224.72;;;26.29;30.63
73242;BME280;65659;49.234;-2.094;2022-12-31T04:59:26;99236.95;;;26.29;30.64
73242;BME280;65659;49.234;-2.094;2022-12-31T05:01:52;99237.73;;;26.29;30.65
73242;BME280;65659;49.234;-2.094;2022-12-31T05:04:18;99237.33;;;26.36;30.57
73242;BME280;65659;49.234;-2.094;2022-12-31T05:06:43;99238.49;;;26.34;30.60
73242;BME280;65659;49.234;-2.094;2022-12-31T05:09:09;99242.49;;;26.33;30.63
73242;BME280;65659;49.234;-2.094;2022-12-31T05:11:35;99244.97;;;26.32;30.63
73242;BME280;65659;49.234;-2.094;2022-12-31T05:14:00;99241.65;;;26.31;30.64
73242;BME280;65659;49.234;-2.094;2022-12-31T05:16:26;99241.61;;;26.31;30.65
73242;BME280;65659;49.234;-2.094;2022-12-31T05:18:52;99238.96;;;26.31;30.65
73242;BME280;65659;49.234;-2.094;2022-12-31T05:21:19;99239.40;;;26.31;30.65
73242;BME280;65659;49.234;-2.094;2022-12-31T05:23:43;99244.94;;;26.31;30.69
73242;BME280;65659;49.234;-2.094;2022-12-31T05:26:09;99239.70;;;26.31;30.68
73242;BME280;65659;49.234;-2.094;2022-12-31T05:28:34;99247.35;;;26.31;30.69
73242;BME280;65659;49.234;-2.094;2022-12-31T05:31:00;99250.13;;;26.53;30.69
73242;BME280;65659;49.234;-2.094;2022-12-31T05:33:26;99255.58;;;26.30;30.68
73242;BME280;65659;49.234;-2.094;2022-12-31T05:35:51;99263.85;;;26.30;30.70
73242;BME280;65659;49.234;-2.094;2022-12-31T05:38:17;99264.58;;;26.31;30.70
73242;BME280;65659;49.234;-2.094;2022-12-31T05:40:43;99264.91;;;26.36;30.63
73242;BME280;65659;49.234;-2.094;2022-12-31T05:43:08;99262.45;;;26.37;30.61
73242;BME280;65659;49.234;-2.094;2022-12-31T05:45:34;99270.13;;;26.35;30.63
73242;BME280;65659;49.234;-2.094;2022-12-31T05:48:00;99277.88;;;26.33;30.70
73242;BME280;65659;49.234;-2.094;2022-12-31T05:50:25;99283.98;;;26.32;30.69
73242;BME280;65659;49.234;-2.094;2022-12-31T05:52:51;99282.26;;;26.30;30.71
73242;BME280;65659;49.234;-2.094;2022-12-31T05:55:17;99281.81;;;26.55;30.73
73242;BME280;65659;49.234;-2.094;2022-12-31T05:57:42;99290.77;;;26.32;30.70
73242;BME280;65659;49.234;-2.094;2022-12-31T06:00:10;99285.50;;;26.31;30.71
73242;BME280;65659;49.234;-2.094;2022-12-31T06:02:34;99284.61;;;26.35;30.69
73242;BME280;65659;49.234;-2.094;2022-12-31T06:04:59;99290.30;;;26.32;30.71
73242;BME280;65659;49.234;-2.094;2022-12-31T06:07:25;99289.75;;;26.38;30.65
73242;BME280;65659;49.234;-2.094;2022-12-31T06:09:51;99297.04;;;26.61;30.70
73242;BME280;65659;49.234;-2.094;2022-12-31T06:12:16;99303.11;;;26.36;30.70
73242;BME280;65659;49.234;-2.094;2022-12-31T06:14:43;99306.56;;;26.36;30.71
73242;BME280;65659;49.234;-2.094;2022-12-31T06:17:08;99311.00;;;26.15;30.67
73242;BME280;65659;49.234;-2.094;2022-12-31T06:19:33;99312.54;;;26.41;30.64
73242;BME280;65659;49.234;-2.094;2022-12-31T06:21:59;99323.68;;;26.40;30.68
73242;BME280;65659;49.234;-2.094;2022-12-31T06:24:25;99329.54;;;26.39;30.67
73242;BME280;65659;49.234;-2.094;2022-12-31T06:26:50;99330.58;;;26.37;30.73
73242;BME280;65659;49.234;-2.094;2022-12-31T06:29:16;99323.68;;;26.12;30.71
73242;BME280;65659;49.234;-2.094;2022-12-31T06:31:42;99311.75;;;26.35;30.70
73242;BME280;65659;49.234;-2.094;2022-12-31T06:34:08;99299.95;;;26.35;30.70
73242;BME280;65659;49.234;-2.094;2022-12-31T06:36:33;99302.08;;;26.33;30.72
73242;BME280;65659;49.234;-2.094;2022-12-31T06:39:00;99305.47;;;26.34;30.74
73242;BME280;65659;49.234;-2.094;2022-12-31T06:41:24;99300.03;;;26.35;30.72
73242;BME280;65659;49.234;-2.094;2022-12-31T06:43:50;99289.99;;;26.59;30.71
73242;BME280;65659;49.234;-2.094;2022-12-31T06:46:17;99296.01;;;26.34;30.73
73242;BME280;65659;49.234;-2.094;2022-12-31T06:48:42;99285.43;;;26.34;30.72
73242;BME280;65659;49.234;-2.094;2022-12-31T06:51:09;99281.58;;;26.33;30.74
73242;BME280;65659;49.234;-2.094;2022-12-31T06:53:33;99276.94;;;26.11;30.72
73242;BME280;65659;49.234;-2.094;2022-12-31T06:56:04;99278.52;;;26.41;30.65
73242;BME280;65659;49.234;-2.094;2022-12-31T06:58:25;99290.40;;;26.17;30.67
73242;BME280;65659;49.234;-2.094;2022-12-31T07:00:59;99288.69;;;25.89;30.72
73242;BME280;65659;49.234;-2.094;2022-12-31T07:03:24;99283.29;;;26.36;30.76
73242;BME280;65659;49.234;-2.094;2022-12-31T07:05:45;99277.30;;;25.91;30.70
73242;BME280;65659;49.234;-2.094;2022-12-31T07:08:16;99274.68;;;26.40;30.69
73242;BME280;65659;49.234;-2.094;2022-12-31T07:10:38;99257.77;;;26.38;30.71
73242;BME280;65659;49.234;-2.094;2022-12-31T07:13:11;99266.44;;;26.64;30.69
73242;BME280;65659;49.234;-2.094;2022-12-31T07:15:35;99271.30;;;26.39;30.70
73242;BME280;65659;49.234;-2.094;2022-12-31T07:17:54;99275.81;;;26.38;30.72
73242;BME280;65659;49.234;-2.094;2022-12-31T07:20:17;99277.25;;;26.38;30.74
73242;BME280;65659;49.234;-2.094;2022-12-31T07:22:41;99282.05;;;26.38;30.74
73242;BME280;65659;49.234;-2.094;2022-12-31T07:25:12;99296.33;;;26.38;30.75
73242;BME280;65659;49.234;-2.094;2022-12-31T07:27:42;99292.52;;;26.37;30.76
73242;BME280;65659;49.234;-2.094;2022-12-31T07:30:02;99288.04;;;26.38;30.75
73242;BME280;65659;49.234;-2.094;2022-12-31T07:32:34;99287.71;;;26.44;30.70
73242;BME280;65659;49.234;-2.094;2022-12-31T07:34:54;99292.80;;;26.44;30.70
73242;BME280;65659;49.234;-2.094;2022-12-31T07:37:21;99292.24;;;26.44;30.71
73242;BME280;65659;49.234;-2.094;2022-12-31T07:39:45;99299.47;;;26.42;30.72
73242;BME280;65659;49.234;-2.094;2022-12-31T07:42:15;99305.24;;;26.63;30.79
73242;BME280;65659;49.234;-2.094;2022-12-31T07:44:40;99312.79;;;26.40;30.77
73242;BME280;65659;49.234;-2.094;2022-12-31T07:46:59;99306.37;;;26.19;30.75
73242;BME280;65659;49.234;-2.094;2022-12-31T07:49:24;99307.06;;;26.42;30.75
73242;BME280;65659;49.234;-2.094;2022-12-31T07:51:50;99313.22;;;26.39;30.77
73242;BME280;65659;49.234;-2.094;2022-12-31T07:54:15;99307.23;;;26.40;30.78
73242;BME280;65659;49.234;-2.094;2022-12-31T07:56:41;99318.59;;;26.40;30.83
73242;BME280;65659;49.234;-2.094;2022-12-31T07:59:15;99321.17;;;26.41;30.78
73242;BME280;65659;49.234;-2.094;2022-12-31T08:01:38;99323.85;;;26.44;30.76
73242;BME280;65659;49.234;-2.094;2022-12-31T08:04:02;99324.20;;;26.44;30.76
73242;BME280;65659;49.234;-2.094;2022-12-31T08:06:30;99316.42;;;26.43;30.77
73242;BME280;65659;49.234;-2.094;2022-12-31T08:08:52;99318.54;;;26.27;30.67
73242;BME280;65659;49.234;-2.094;2022-12-31T08:11:20;99322.53;;;26.52;30.67
73242;BME280;65659;49.234;-2.094;2022-12-31T08:13:41;99325.38;;;26.47;30.73
73242;BME280;65659;49.234;-2.094;2022-12-31T08:16:10;99326.42;;;26.44;30.78
73242;BME280;65659;49.234;-2.094;2022-12-31T08:18:32;99323.60;;;26.50;30.73
73242;BME280;65659;49.234;-2.094;2022-12-31T08:21:05;99330.66;;;26.49;30.73
73242;BME280;65659;49.234;-2.094;2022-12-31T08:23:27;99333.37;;;26.22;30.76
73242;BME280;65659;49.234;-2.094;2022-12-31T08:25:58;99332.31;;;26.44;30.79
73242;BME280;65659;49.234;-2.094;2022-12-31T08:28:20;99340.57;;;26.43;30.82
73242;BME280;65659;49.234;-2.094;2022-12-31T08:30:47;99336.31;;;26.42;30.84
73242;BME280;65659;49.234;-2.094;2022-12-31T08:33:12;99343.85;;;26.44;30.81
73242;BME280;65659;49.234;-2.094;2022-12-31T08:35:40;99341.48;;;26.45;30.80
73242;BME280;65659;49.234;-2.094;2022-12-31T08:38:12;99346.43;;;26.45;30.82
73242;BME280;65659;49.234;-2.094;2022-12-31T08:40:27;99342.89;;;26.43;30.86
73242;BME280;65659;49.234;-2.094;2022-12-31T08:43:02;99341.20;;;26.40;30.87
73242;BME280;65659;49.234;-2.094;2022-12-31T08:45:18;99345.24;;;26.23;30.78
73242;BME280;65659;49.234;-2.094;2022-12-31T08:47:47;99342.98;;;26.49;30.76
73242;BME280;65659;49.234;-2.094;2022-12-31T08:50:11;99340.51;;;26.48;30.78
73242;BME280;65659;49.234;-2.094;2022-12-31T08:52:31;99341.42;;;26.03;30.76
73242;BME280;65659;49.234;-2.094;2022-12-31T08:54:57;99337.39;;;26.33;30.70
73242;BME280;65659;49.234;-2.094;2022-12-31T08:57:28;99337.26;;;26.61;30.66
73242;BME280;65659;49.234;-2.094;2022-12-31T08:59:52;99347.52;;;26.51;30.74
73242;BME280;65659;49.234;-2.094;2022-12-31T09:02:28;99338.36;;;26.48;30.81
73242;BME280;65659;49.234;-2.094;2022-12-31T09:04:48;99337.02;;;26.47;30.81
73242;BME280;65659;49.234;-2.094;2022-12-31T09:07:05;99347.37;;;26.47;30.80
73242;BME280;65659;49.234;-2.094;2022-12-31T09:09:39;99341.84;;;26.44;30.84
73242;BME280;65659;49.234;-2.094;2022-12-31T09:12:03;99345.37;;;26.46;30.82
73242;BME280;65659;49.234;-2.094;2022-12-31T09:14:37;99345.07;;;26.17;30.89
73242;BME280;65659;49.234;-2.094;2022-12-31T09:16:53;99343.45;;;26.40;30.90
73242;BME280;65659;49.234;-2.094;2022-12-31T09:19:13;99329.17;;;26.43;30.87
73242;BME280;65659;49.234;-2.094;2022-12-31T09:21:39;99326.18;;;26.25;30.80
73242;BME280;65659;49.234;-2.094;2022-12-31T09:24:05;99333.14;;;26.50;30.79
73242;BME280;65659;49.234;-2.094;2022-12-31T09:26:39;99328.45;;;26.24;30.84
73242;BME280;65659;49.234;-2.094;2022-12-31T09:29:03;99329.20;;;26.44;30.87
73242;BME280;65659;49.234;-2.094;2022-12-31T09:31:27;99326.13;;;26.46;30.84
73242;BME280;65659;49.234;-2.094;2022-12-31T09:33:52;99331.64;;;26.43;30.87
73242;BME280;65659;49.234;-2.094;2022-12-31T09:36:17;99329.80;;;26.41;30.88
73242;BME280;65659;49.234;-2.094;2022-12-31T09:38:46;99329.87;;;26.41;30.90
73242;BME280;65659;49.234;-2.094;2022-12-31T09:41:12;99328.51;;;26.42;30.89
73242;BME280;65659;49.234;-2.094;2022-12-31T09:46:08;99335.99;;;26.43;30.91
73242;BME280;65659;49.234;-2.094;2022-12-31T09:48:31;99341.06;;;26.22;30.89
73242;BME280;65659;49.234;-2.094;2022-12-31T09:50:53;99337.18;;;26.24;30.84
73242;BME280;65659;49.234;-2.094;2022-12-31T09:53:26;99341.06;;;26.46;30.86
73242;BME280;65659;49.234;-2.094;2022-12-31T09:55:44;99347.66;;;26.45;30.89
73242;BME280;65659;49.234;-2.094;2022-12-31T09:58:17;99351.68;;;26.50;30.82
73242;BME280;65659;49.234;-2.094;2022-12-31T10:00:35;99342.70;;;26.28;30.82
73242;BME280;65659;49.234;-2.094;2022-12-31T10:03:09;99339.14;;;26.50;30.81
73242;BME280;65659;49.234;-2.094;2022-12-31T10:07:53;99341.58;;;26.48;30.85
73242;BME280;65659;49.234;-2.094;2022-12-31T10:10:17;99343.38;;;26.51;30.79
73242;BME280;65659;49.234;-2.094;2022-12-31T10:15:17;99357.06;;;26.47;30.84
73242;BME280;65659;49.234;-2.094;2022-12-31T10:17:39;99350.84;;;26.45;30.87
73242;BME280;65659;49.234;-2.094;2022-12-31T10:20:15;99359.98;;;26.45;30.86
73242;BME280;65659;49.234;-2.094;2022-12-31T10:24:54;99362.60;;;26.90;30.92
73242;BME280;65659;49.234;-2.094;2022-12-31T10:27:21;99366.58;;;26.45;30.86
73242;BME280;65659;49.234;-2.094;2022-12-31T10:29:45;99364.28;;;26.43;30.86
73242;BME280;65659;49.234;-2.094;2022-12-31T10:32:14;99374.08;;;26.43;30.89
73242;BME280;65659;49.234;-2.094;2022-12-31T10:34:37;99371.55;;;26.45;30.84
73242;BME280;65659;49.234;-2.094;2022-12-31T10:37:00;99373.99;;;26.49;30.80
73242;BME280;65659;49.234;-2.094;2022-12-31T10:39:29;99374.33;;;26.46;30.85
73242;BME280;65659;49.234;-2.094;2022-12-31T10:41:58;99373.46;;;26.44;30.87
73242;BME280;65659;49.234;-2.094;2022-12-31T10:46:49;99367.94;;;26.44;30.85
73242;BME280;65659;49.234;-2.094;2022-12-31T10:49:25;99369.92;;;26.44;30.84
73242;BME280;65659;49.234;-2.094;2022-12-31T10:54:10;99370.77;;;26.19;30.84
73242;BME280;65659;49.234;-2.094;2022-12-31T10:59:04;99365.32;;;26.18;30.87
73242;BME280;65659;49.234;-2.094;2022-12-31T11:01:15;99364.64;;;26.45;30.83
73242;BME280;65659;49.234;-2.094;2022-12-31T11:04:00;99363.78;;;26.44;30.88
73242;BME280;65659;49.234;-2.094;2022-12-31T11:11:04;99360.06;;;26.23;30.81
73242;BME280;65659;49.234;-2.094;2022-12-31T11:13:39;99361.22;;;26.32;30.74
73242;BME280;65659;49.234;-2.094;2022-12-31T11:15:56;99361.12;;;26.35;30.63
73242;BME280;65659;49.234;-2.094;2022-12-31T11:18:18;99345.39;;;26.56;30.66
73242;BME280;65659;49.234;-2.094;2022-12-31T11:20:48;99342.03;;;26.54;30.67
73242;BME280;65659;49.234;-2.094;2022-12-31T11:23:11;99341.69;;;26.76;30.68
73242;BME280;65659;49.234;-2.094;2022-12-31T11:25:33;99350.71;;;26.49;30.74
73242;BME280;65659;49.234;-2.094;2022-12-31T11:30:22;99335.67;;;25.98;30.75
73242;BME280;65659;49.234;-2.094;2022-12-31T11:32:56;99346.19;;;26.46;30.73
73242;BME280;65659;49.234;-2.094;2022-12-31T11:35:22;99335.17;;;26.21;30.77
73242;BME280;65659;49.234;-2.094;2022-12-31T11:37:43;99337.21;;;26.26;30.69
73242;BME280;65659;49.234;-2.094;2022-12-31T11:40:17;99339.31;;;26.46;30.71
73242;BME280;65659;49.234;-2.094;2022-12-31T11:42:38;99342.14;;;26.44;30.74
73242;BME280;65659;49.234;-2.094;2022-12-31T11:44:58;99333.41;;;26.47;30.68
73242;BME280;65659;49.234;-2.094;2022-12-31T11:47:37;99333.71;;;26.44;30.71
73242;BME280;65659;49.234;-2.094;2022-12-31T11:49:55;99329.46;;;26.49;30.66
73242;BME280;65659;49.234;-2.094;2022-12-31T11:52:23;99321.19;;;26.23;30.68
73242;BME280;65659;49.234;-2.094;2022-12-31T11:54:48;99310.51;;;26.21;30.66
73242;BME280;65659;49.234;-2.094;2022-12-31T11:57:08;99320.87;;;26.46;30.64
73242;BME280;65659;49.234;-2.094;2022-12-31T11:59:26;99313.48;;;26.42;30.73
73242;BME280;65659;49.234;-2.094;2022-12-31T12:01:54;99302.25;;;26.42;30.68
73242;BME280;65659;49.234;-2.094;2022-12-31T12:04:17;99306.22;;;26.39;30.71
73242;BME280;65659;49.234;-2.094;2022-12-31T12:06:43;99296.21;;;26.41;30.67
73242;BME280;65659;49.234;-2.094;2022-12-31T12:09:13;99292.96;;;26.14;30.70
73242;BME280;65659;49.234;-2.094;2022-12-31T12:11:37;99285.58;;;26.41;30.65
73242;BME280;65659;49.234;-2.094;2022-12-31T12:14:00;99282.91;;;26.38;30.71
73242;BME280;65659;49.234;-2.094;2022-12-31T12:16:26;99281.42;;;26.37;30.71
73242;BME280;65659;49.234;-2.094;2022-12-31T12:19:01;99271.63;;;26.59;30.68
73242;BME280;65659;49.234;-2.094;2022-12-31T12:21:19;99266.17;;;26.34;30.70
73242;BME280;65659;49.234;-2.094;2022-12-31T12:23:53;99260.39;;;26.33;30.76
73242;BME280;65659;49.234;-2.094;2022-12-31T12:28:42;99244.73;;;26.41;30.58
73242;BME280;65659;49.234;-2.094;2022-12-31T12:31:01;99238.93;;;26.40;30.61
73242;BME280;65659;49.234;-2.094;2022-12-31T12:33:26;99245.06;;;26.37;30.66
73242;BME280;65659;49.234;-2.094;2022-12-31T12:35:51;99249.76;;;26.32;30.70
73242;BME280;65659;49.234;-2.094;2022-12-31T12:38:18;99246.65;;;26.33;30.68
73242;BME280;65659;49.234;-2.094;2022-12-31T12:40:53;99247.94;;;26.32;30.69
73242;BME280;65659;49.234;-2.094;2022-12-31T12:45:40;99234.28;;;26.33;30.70
73242;BME280;65659;49.234;-2.094;2022-12-31T12:48:01;99228.30;;;26.35;30.61
73242;BME280;65659;49.234;-2.094;2022-12-31T12:50:31;99230.03;;;26.34;30.65
73242;BME280;65659;49.234;-2.094;2022-12-31T12:53:06;99227.62;;;26.59;30.60
73242;BME280;65659;49.234;-2.094;2022-12-31T12:55:20;99219.59;;;26.38;30.56
73242;BME280;65659;49.234;-2.094;2022-12-31T12:57:45;99213.98;;;26.39;30.57
73242;BME280;65659;49.234;-2.094;2022-12-31T13:00:14;99212.00;;;26.15;30.50
73242;BME280;65659;49.234;-2.094;2022-12-31T13:05:09;99202.78;;;26.48;30.39
73242;BME280;65659;49.234;-2.094;2022-12-31T13:07:31;99210.96;;;26.50;30.38
73242;BME280;65659;49.234;-2.094;2022-12-31T13:10:01;99202.07;;;26.43;30.46
73242;BME280;65659;49.234;-2.094;2022-12-31T13:12:22;99193.07;;;26.17;30.46
73242;BME280;65659;49.234;-2.094;2022-12-31T13:14:47;99197.90;;;26.40;30.45